Tiempo atmosférico en la estación meteorológica de Navasfrías, Salamanca (880 m.)



Fecha
DESCASC
Temp. máxima en grados centígrados (hora)
DESCASC
Temp. mínima en grados centígrados (hora)
DESCASC
Temp. media en grados centígrados
DESCASC
Racha de viento máxima en m/sg (hora)
DESCASC
Velocidad máxima media en intervalos de 10 minutos(hora)
DESCASC
Precipitaciones diarias en mm
DESCASC
Precipitaciones de 00:00 a 06:00 en mm
DESCASC
Precipitaciones de 06:00 a 12:00 en mm
DESCASC
Precipitaciones de 12:00 a 18:00 en mm
DESCASC
Precipitaciones de 18:00 a 24:00 en mm
DESCASC
23-05-2020 26.3 (18:40) 9 (05:20) 17.6 5.56 (16:00) 2.5 (19:40) 0 0 0 0 0
22-05-2020 27.1 (16:30) 6.2 (05:30) 16.7 4.72 (19:00) 2.78 (19:10) 0 0 0 0 0
21-05-2020 24.9 (17:40) 8.7 (00:00) 16.8 7.78 (15:40) 3.89 (16:40) 0 0 0 0 0
20-05-2020 26.7 (16:30) 5.9 (00:00) 16.3 6.67 (20:00) 3.61 (19:30) 0 0 0 0 0
19-05-2020 25.3 (18:50) 6.3 (07:20) 15.8 6.11 (15:50) 3.33 (15:50) 0 0 0 0 0
18-05-2020 23.5 (18:10) 2.5 (00:00) 13 7.22 (15:10) 3.61 (16:30) 0 0 0 0 0
17-05-2020 19.5 (18:50) 1.8 (00:00) 10.6 8.33 (13:50) 3.61 (17:50) 0 0 0 0 0
16-05-2020 18.1 (18:50) 6.2 (00:00) 12.2 6.67 (18:10) 3.33 (19:40) 0 0 0 0 0
15-05-2020 16 (18:20) 8.3 (23:59) 12.2 7.78 (14:20) 3.61 (12:40) 0.2 0.2 0 0 0
14-05-2020 13.1 (18:00) 5.5 (00:00) 9.3 7.5 (18:50) 3.61 (03:10) 7.2 7.2 0 0 0
13-05-2020 14.8 (15:50) 8.7 (00:00) 11.8 9.17 (18:40) 5 (17:30) 5.2 0 0 0 5.2
12-05-2020 14.1 (20:10) 3.3 (07:10) 8.7 5.83 (13:50) 2.5 (13:20) 3.4 0 0 3.4 0
11-05-2020 16 (15:50) 8.4 (00:00) 12.2 9.44 (10:20) 4.44 (12:10) 13.6 2.6 4.4 3.8 2.8
10-05-2020 14.8 (19:20) 4.4 (00:00) 9.6 7.5 (17:40) 3.61 (17:50) 1.2 0 0.4 0.8 0
09-05-2020 16.4 (16:50) 6.5 (23:59) 11.4 11.39 (18:50) 6.39 (17:50) 6.8 0 0 0.8 6
08-05-2020 20.5 (18:40) 10.7 (00:00) 15.6 10.56 (17:50) 5.28 (11:10) 0 0 0 0 0
07-05-2020 22 (19:10) 7.1 (00:00) 14.5 8.89 (18:50) 4.72 (18:50) 0 0 0 0 0
06-05-2020 21.1 (18:20) 4.2 (00:00) 12.7 5.28 (16:50) 2.5 (15:30) 0 0 0 0 0
05-05-2020 18.1 (16:50) 4.6 (00:00) 11.4 7.78 (17:20) 3.61 (17:10) 0 0 0 0 0
04-05-2020 20.6 (01:20) 11.5 (00:00) 16.1 15 (12:10) 8.61 (12:10) 0 0 0 0 0
03-05-2020 24.5 (17:30) 5.1 (04:50) 14.8 10 (15:30) 5 (14:30) 0 0 0 0 0
02-05-2020 21.1 (17:30) 4 (07:30) 12.6 7.22 (14:10) 3.61 (16:30) 0 0 0 0 0
01-05-2020 17.2 (17:50) 9.7 (00:00) 13.5 7.78 (06:20) 4.17 (02:20) 0 0 0 0 0
30-04-2020 14.6 (15:30) 6.4 (02:00) 10.5 8.33 (15:10) 4.17 (18:50) 0 0 0 0 0
29-04-2020 12.7 (19:50) 1.5 (00:00) 7.1 11.39 (17:40) 5.56 (12:40) 2.2 0 0 2.2 0
28-04-2020 13.3 (17:10) 1.4 (06:30) 7.4 8.89 (16:00) 4.17 (16:00) 0.2 0 0 0 0.2
27-04-2020 12.7 (15:50) 5.5 (00:00) 9.1 5.83 (15:40) 3.33 (15:50) 24.8 0 0 24.8 0

Gráficas

Temp. máximas Temp. mínimas Temp. medias Precipitaciones Rachas de viento máximas Velocidades máximas media en intervalos de 10 minutos

Datos horarios

Fecha y hora oficial Temperatura (ºC) Velocidad del viento (km/h) Dirección del viento Racha (km/h) Dirección de racha Precipitación (mm) Presión (hPa) Tendencia (hPa) Humedad (%)
2020-05-26 23:00:00 15.3 0 Calma 5 Sur 0 -- -- 81
2020-05-26 22:00:00 18.4 0 Calma 8 Este 0 -- -- 74
2020-05-26 21:00:00 21.3 0 Calma 9 Nordeste 0 -- -- 69
2020-05-26 20:00:00 23.8 3 Norte 14 Norte 0 -- -- 56
2020-05-26 19:00:00 24.6 4 Sudeste 23 Sudeste 0 -- -- 56
2020-05-26 18:00:00 24.2 8 Este 16 Sudeste 0 -- -- 59
2020-05-26 17:00:00 25.1 6 Sudeste 15 Sudeste 0 -- -- 51
2020-05-26 16:00:00 24.9 6 Sudoeste 19 Este 0 -- -- 52
2020-05-26 15:00:00 24.3 3 Este 16 Oeste 0 -- -- 62
2020-05-26 14:00:00 22.8 6 Norte 16 Norte 0 -- -- 64
2020-05-26 13:00:00 20.9 7 Noroeste 14 Norte 0 -- -- 73
2020-05-26 12:00:00 19.1 5 Norte 12 Norte 0 -- -- 71
2020-05-26 11:00:00 16.9 0 Calma 0 Calma 0 -- -- 77
2020-05-26 10:00:00 13.8 0 Calma 0 Calma 0 -- -- 88
2020-05-26 09:00:00 12.9 0 Calma 0 Calma 0 -- -- 93
2020-05-26 08:00:00 11.9 0 Calma 0 Calma 0 -- -- 97
2020-05-26 07:00:00 10.7 0 Calma -- -- 0 -- -- 98
2020-05-26 06:00:00 9.8 0 Calma -- -- 0 -- -- 96
2020-05-26 05:00:00 10.1 0 Calma 0 Calma 0 -- -- 95
2020-05-26 04:00:00 10.7 0 Calma -- -- 0 -- -- 93
2020-05-26 03:00:00 11.8 0 Calma -- -- 0 -- -- 91
2020-05-26 02:00:00 12.6 0 Calma -- -- 0 -- -- 89
2020-05-26 01:00:00 13.2 0 Calma -- -- 0 -- -- 87
2020-05-26 00:00:00 14.3 0 Calma -- -- 0 -- -- 84
2020-05-25 23:00:00 16.3 0 Calma -- -- 0 -- -- 78
2020-05-25 22:00:00 20 0 Calma -- -- 0 -- -- 68
2020-05-25 21:00:00 25.9 0 Calma 14 Norte 0 -- -- 44
2020-05-25 20:00:00 26.9 4 Norte 19 Noroeste 0 -- -- 43
2020-05-25 19:00:00 27.8 5 Norte 18 Norte 0 -- -- 41
2020-05-25 18:00:00 27.6 7 Noroeste 19 Norte 0 -- -- 43
2020-05-25 17:00:00 27.4 6 Norte 15 Este 0 -- -- 42
2020-05-25 16:00:00 26.8 3 Sudoeste 18 Norte 0 -- -- 38
2020-05-25 15:00:00 25.8 9 Norte 17 Noroeste 0 -- -- 50
2020-05-25 14:00:00 25.3 5 Noroeste 11 Nordeste 0 -- -- 55
2020-05-25 13:00:00 24.3 3 Nordeste 15 Norte 0 -- -- 55
2020-05-25 12:00:00 23 4 Nordeste 11 Norte 0 -- -- 65
2020-05-25 11:00:00 21.1 4 Norte 9 Nordeste 0 -- -- 74
2020-05-25 10:00:00 17 3 Este 6 Sudeste 0 -- -- 95
2020-05-25 09:00:00 12.7 0 Calma 3 Sur 0 -- -- 100
2020-05-25 08:00:00 10.4 0 Calma 3 Sudoeste 0 -- -- 98
2020-05-25 07:00:00 10.4 2 Sudoeste 4 Sur 0 -- -- 97
2020-05-25 06:00:00 10.9 0 Calma 4 Sudoeste 0 -- -- 97
2020-05-25 05:00:00 11.2 0 Calma 3 Sur 0 -- -- 95
2020-05-25 04:00:00 11.7 2 Sur 4 Sur 0 -- -- 96
2020-05-25 03:00:00 12.3 2 Sur 4 Sur 0 -- -- 94
2020-05-25 02:00:00 13 2 Sur 5 Sur 0 -- -- 93
2020-05-25 01:00:00 14 2 Sur 5 Sudeste 0 -- -- 92
2020-05-25 00:00:00 15.2 2 Sur 4 Sudoeste 0 -- -- 89
2020-05-24 23:00:00 17.6 0 Calma 4 Sudeste 0 -- -- 84
2020-05-24 22:00:00 20.7 0 Calma 3 Sur 0 -- -- 79
2020-05-24 21:00:00 23 0 Calma 6 Norte 0 -- -- 72
2020-05-24 20:00:00 26.4 5 Norte 10 Noroeste 0 -- -- 55
2020-05-24 19:00:00 25.1 2 Este 12 Noroeste 0 -- -- 64
2020-05-24 18:00:00 26.5 3 Nordeste 10 Noroeste 0 -- -- 55
2020-05-24 17:00:00 26.5 9 Noroeste 22 Noroeste 0 -- -- 55
2020-05-24 16:00:00 26.4 6 Oeste 19 Noroeste 0 -- -- 52
2020-05-24 15:00:00 25.2 5 Sudeste 13 Norte 0 -- -- 57
2020-05-24 14:00:00 23.3 5 Norte 15 Norte 0 -- -- 69
2020-05-24 13:00:00 20.8 4 Norte 14 Noroeste 0 -- -- 71
2020-05-24 12:00:00 19.3 4 Norte 11 Noroeste 0 -- -- 76
2020-05-24 11:00:00 16.7 4 Nordeste 9 Sur 0 -- -- 77
2020-05-24 10:00:00 13.6 3 Norte 9 Norte 0 -- -- 88
2020-05-24 09:00:00 11.6 3 Este 6 Este 0 -- -- 95
2020-05-24 08:00:00 9.6 0 Calma 3 Sudoeste 0 -- -- 98
2020-05-24 07:00:00 9.8 0 Calma 2 Sur 0 -- -- 96
2020-05-24 06:00:00 10.9 0 Calma 3 Sur 0 -- -- 95
2020-05-24 05:00:00 11.8 0 Calma 5 Sur 0 -- -- 96
2020-05-24 04:00:00 12.2 0 Calma 3 Sudeste 0 -- -- 95
2020-05-24 03:00:00 12.5 0 Calma 4 Sudoeste 0 -- -- 95
2020-05-24 02:00:00 12.5 0 Calma 4 Sur 0 -- -- 94
2020-05-24 01:00:00 12.9 0 Calma 5 Sur 0 -- -- 91
2020-05-24 00:00:00 13.8 0 Calma 4 Sur 0 -- -- 86
2020-05-23 23:00:00 15.8 2 Sudeste 6 Sudoeste 0 -- -- 82
2020-05-23 22:00:00 19.1 2 Sur 4 Sur 0 -- -- 73
2020-05-23 21:00:00 23.2 0 Calma 13 Norte 0 -- -- 59
2020-05-23 20:00:00 25.4 7 Noroeste 16 Noroeste 0 -- -- 44
2020-05-23 19:00:00 26.1 5 Norte 15 Noroeste 0 -- -- 44
2020-05-23 18:00:00 26 8 Noroeste 19 Noroeste 0 -- -- 46
2020-05-23 17:00:00 25.8 5 Norte 17 Noroeste 0 -- -- 50
2020-05-23 16:00:00 24.6 8 Norte 20 Norte 0 -- -- 54
2020-05-23 15:00:00 23.3 6 Noroeste 16 Norte 0 -- -- 60
2020-05-23 14:00:00 22 4 Norte 16 Noroeste 0 -- -- 63
2020-05-23 13:00:00 20.7 5 Norte 14 Norte 0 -- -- 69
2020-05-23 12:00:00 18.4 5 Norte 15 Noroeste 0 -- -- 81
2020-05-23 11:00:00 16.4 4 Norte 10 Norte 0 -- -- 91
2020-05-23 10:00:00 14.1 4 Sudeste 9 Sudeste 0 -- -- 99
2020-05-23 09:00:00 12.2 2 Nordeste 5 Norte 0 -- -- 100
2020-05-23 08:00:00 11.3 0 Calma 3 Sur 0 -- -- 99
2020-05-23 07:00:00 11 0 Calma 3 Sur 0 -- -- 99
2020-05-23 06:00:00 9.3 0 Calma 3 Sudoeste 0 -- -- 98
2020-05-23 05:00:00 9.4 0 Calma 5 Sur 0 -- -- 96
2020-05-23 04:00:00 10.1 0 Calma 4 Sudoeste 0 -- -- 96
2020-05-23 03:00:00 10.8 0 Calma 4 Sur 0 -- -- 94
2020-05-23 02:00:00 11.6 0 Calma 3 Sur 0 -- -- 92
2020-05-23 01:00:00 12.5 0 Calma 5 Este 0 -- -- 90
2020-05-23 00:00:00 13.5 0 Calma 4 Sur 0 -- -- 86
2020-05-22 23:00:00 15.2 0 Calma 5 Sur 0 -- -- 79
2020-05-22 22:00:00 18.6 3 Sur 5 Sur 0 -- -- 67
2020-05-22 21:00:00 23.8 0 Calma 9 Sudoeste 0 -- -- 50
2020-05-22 20:00:00 25.6 6 Sur 17 Sur 0 -- -- 42
2020-05-22 19:00:00 26.7 7 Sudoeste 17 Sur 0 -- -- 43
2020-05-22 18:00:00 27 5 Sudoeste 17 Sudoeste 0 -- -- 44
2020-05-22 17:00:00 26.7 5 Sudoeste 14 Sudoeste 0 -- -- 51
2020-05-22 16:00:00 26.7 8 Sudoeste 15 Sudoeste 0 -- -- 49
2020-05-22 15:00:00 26.1 6 Sudoeste 14 Oeste 0 -- -- 52
2020-05-22 14:00:00 25.1 3 Este 10 Sudeste 0 -- -- 39
2020-05-22 13:00:00 23.6 4 Noroeste 10 Oeste 0 -- -- 52
2020-05-22 12:00:00 22.2 2 Este 11 Nordeste 0 -- -- 65
2020-05-22 11:00:00 19.6 3 Este 9 Norte 0 -- -- 70
2020-05-22 10:00:00 15 0 Calma 5 Norte 0 -- -- 100
2020-05-22 09:00:00 10.2 0 Calma 2 Sur 0 -- -- 100
2020-05-22 08:00:00 6.8 0 Calma 3 Sudoeste 0 -- -- 99
2020-05-22 07:00:00 6.2 0 Calma 3 Sur 0 -- -- 97
2020-05-22 06:00:00 6.3 0 Calma 4 Sudoeste 0 -- -- 96
2020-05-22 05:00:00 6.3 0 Calma 4 Sur 0 -- -- 95
2020-05-22 04:00:00 6.6 2 Sur 4 Sur 0 -- -- 93
2020-05-22 03:00:00 7.2 0 Calma 4 Sur 0 -- -- 92
2020-05-22 02:00:00 8 2 Sur 5 Este 0 -- -- 89
2020-05-22 01:00:00 9.1 3 Sur 4 Sur 0 -- -- 87
2020-05-22 00:00:00 10.3 3 Sur 6 Sudoeste 0 -- -- 85
2020-05-21 23:00:00 11.9 2 Sur 6 Sur 0 -- -- 79
2020-05-21 22:00:00 15.1 2 Sur 6 Sur 0 -- -- 69
2020-05-21 21:00:00 22.4 0 Calma 13 Sur 0 -- -- 41
2020-05-21 20:00:00 23.7 5 Sudoeste 16 Sur 0 -- -- 37
2020-05-21 19:00:00 24.2 8 Sur 25 Sudoeste 0 -- -- 35
2020-05-21 18:00:00 24.7 13 Sudoeste 24 Sur 0 -- -- 37
2020-05-21 17:00:00 24.5 9 Sur 28 Sur 0 -- -- 42
2020-05-21 16:00:00 24.5 11 Sudoeste 28 Sur 0 -- -- 41
2020-05-21 15:00:00 24.4 11 Sudoeste 26 Sur 0 -- -- 45
2020-05-21 14:00:00 24.4 9 Sur 23 Sudoeste 0 -- -- 49
2020-05-21 13:00:00 24.3 9 Sur 22 Sur 0 -- -- 56
2020-05-21 12:00:00 24 7 Sur 18 Sudoeste 0 -- -- 57
2020-05-21 11:00:00 22.6 9 Sudeste 17 Sudeste 0 -- -- 56
2020-05-21 10:00:00 16.5 0 Calma 2 Sudoeste 0 -- -- 98
2020-05-21 09:00:00 12.6 0 Calma 3 Sur 0 -- -- 100
2020-05-21 08:00:00 9.4 0 Calma 3 Sur 0 -- -- 99
2020-05-21 07:00:00 8.8 0 Calma 4 Sur 0 -- -- 97
2020-05-21 06:00:00 9.2 0 Calma 3 Sur 0 -- -- 97
2020-05-21 05:00:00 9.7 0 Calma 4 Sur 0 -- -- 96
2020-05-21 04:00:00 10.1 0 Calma 4 Sur 0 -- -- 95
2020-05-21 03:00:00 10.6 0 Calma 4 Sur 0 -- -- 94
2020-05-21 02:00:00 11.5 0 Calma 4 Sur 0 -- -- 92
2020-05-21 01:00:00 12.2 0 Calma 4 Sur 0 -- -- 91
2020-05-21 00:00:00 13.2 0 Calma 4 Sur 0 -- -- 86
2020-05-20 23:00:00 15 0 Calma 5 Sur 0 -- -- 79
2020-05-20 22:00:00 18.5 0 Calma 8 Oeste 0 -- -- 64
2020-05-20 21:00:00 22.4 3 Sudoeste 20 Sur 0 -- -- 48
2020-05-20 20:00:00 24.3 13 Sur 24 Sudoeste 0 -- -- 45
2020-05-20 19:00:00 25.9 8 Sur 22 Sur 0 -- -- 42
2020-05-20 18:00:00 26.1 7 Sudoeste 21 Sur 0 -- -- 41
2020-05-20 17:00:00 26.2 9 Sudoeste 20 Sudoeste 0 -- -- 38
2020-05-20 16:00:00 26.3 9 Sudoeste 23 Sur 0 -- -- 39
2020-05-20 15:00:00 26.1 9 Sudoeste 20 Sur 0 -- -- 40
2020-05-20 14:00:00 25.5 6 Sudoeste 17 Sudoeste 0 -- -- 42
2020-05-20 13:00:00 24.7 4 Sudoeste 10 Sur 0 -- -- 39
2020-05-20 12:00:00 23.1 3 Norte 8 Norte 0 -- -- 52
2020-05-20 11:00:00 20.7 0 Calma 6 Sudeste 0 -- -- 57
2020-05-20 10:00:00 15.9 0 Calma 4 Este 0 -- -- 74
2020-05-20 09:00:00 9.9 0 Calma 3 Sur 0 -- -- 100
2020-05-20 08:00:00 6.4 2 Sudoeste 3 Sur 0 -- -- 99
2020-05-20 07:00:00 6 2 Sudoeste 3 Sudoeste 0 -- -- 96
2020-05-20 06:00:00 6.4 2 Sur 4 Sur 0 -- -- 95
2020-05-20 05:00:00 7 2 Sur 4 Sudoeste 0 -- -- 94
2020-05-20 04:00:00 7.6 3 Sur 4 Sur 0 -- -- 92
2020-05-20 03:00:00 8.4 3 Sur 4 Sur 0 -- -- 92
2020-05-20 02:00:00 9.1 2 Sur 4 Sur 0 -- -- 91
2020-05-20 01:00:00 9.9 3 Sur 5 Sur 0 -- -- 88
2020-05-20 00:00:00 11.1 3 Sur 6 Sur 0 -- -- 86
2020-05-19 23:00:00 13 3 Sur 6 Sur 0 -- -- 81
2020-05-19 22:00:00 16.6 3 Sur 6 Sur 0 -- -- 70
2020-05-19 21:00:00 23.6 2 Norte 13 Norte 0 -- -- 42
2020-05-19 20:00:00 25.2 4 Norte 13 Norte 0 -- -- 35
2020-05-19 19:00:00 25.1 8 Norte 18 Noroeste 0 -- -- 37
2020-05-19 18:00:00 25.2 6 Noroeste 18 Norte 0 -- -- 37
2020-05-19 17:00:00 24.6 8 Noroeste 16 Norte 0 -- -- 42
2020-05-19 16:00:00 23.5 5 Norte 22 Norte 0 -- -- 44
2020-05-19 15:00:00 23.3 4 Noroeste 18 Norte 0 -- -- 43
2020-05-19 14:00:00 23.2 9 Norte 22 Norte 0 -- -- 47
2020-05-19 13:00:00 22.7 7 Norte 19 Norte 0 -- -- 47
2020-05-19 12:00:00 22.3 5 Este 14 Nordeste 0 -- -- 44
2020-05-19 11:00:00 19.4 2 Norte 6 Este 0 -- -- 53
2020-05-19 10:00:00 14.2 2 Norte 3 Norte 0 -- -- 80
2020-05-19 09:00:00 10.4 0 Calma 3 Sur 0 -- -- 100
2020-05-19 08:00:00 6.6 2 Sudoeste 4 Sur 0 -- -- 99
2020-05-19 07:00:00 6.5 0 Calma 3 Sur 0 -- -- 98
2020-05-19 06:00:00 6.8 0 Calma 5 Sur 0 -- -- 98
2020-05-19 05:00:00 6.9 0 Calma 3 Sur 0 -- -- 97
2020-05-19 04:00:00 7.3 0 Calma 2 Sur 0 -- -- 96
2020-05-19 03:00:00 7.6 0 Calma 3 Sudoeste 0 -- -- 94
2020-05-19 02:00:00 8.2 0 Calma 4 Sudoeste 0 -- -- 92
2020-05-19 01:00:00 8.8 2 Sur 3 Sudoeste 0 -- -- 91
2020-05-19 00:00:00 10 2 Sur 4 Sudoeste 0 -- -- 87
2020-05-18 23:00:00 12 3 Sur 5 Sur 0 -- -- 83
2020-05-18 22:00:00 16.2 3 Sur 4 Sur 0 -- -- 69
2020-05-18 21:00:00 22.3 2 Norte 16 Norte 0 -- -- 46
2020-05-18 20:00:00 23.1 5 Norte 21 Noroeste 0 -- -- 42
2020-05-18 19:00:00 23.3 9 Norte 21 Norte 0 -- -- 42
2020-05-18 18:00:00 23.3 8 Norte 21 Noroeste 0 -- -- 40
2020-05-18 17:00:00 22.9 11 Norte 24 Noroeste 0 -- -- 41
2020-05-18 16:00:00 22.4 10 Norte 26 Norte 0 -- -- 44
2020-05-18 15:00:00 21.6 10 Norte 21 Noroeste 0 -- -- 39
2020-05-18 14:00:00 20.8 11 Norte 20 Norte 0 -- -- 42
2020-05-18 13:00:00 19.9 8 Norte 23 Norte 0 -- -- 43
2020-05-18 12:00:00 19.3 4 Nordeste 14 Norte 0 -- -- 45
2020-05-18 11:00:00 17.6 6 Norte 13 Noroeste 0 -- -- 57
2020-05-18 10:00:00 12 0 Calma 4 Noroeste 0 -- -- 83
2020-05-18 09:00:00 6.5 0 Calma 2 Sur 0 -- -- 100
2020-05-18 08:00:00 2.9 2 Sudoeste 3 Sudoeste 0 -- -- 100
2020-05-18 07:00:00 2.5 0 Calma 3 Sudoeste 0 -- -- 98
2020-05-18 06:00:00 2.9 0 Calma 3 Sudoeste 0 -- -- 98
2020-05-18 05:00:00 3.3 2 Sudoeste 3 Sudoeste 0 -- -- 97
2020-05-18 04:00:00 3.8 2 Sudoeste 3 Sur 0 -- -- 97
2020-05-18 03:00:00 4.3 2 Sur 4 Sur 0 -- -- 95
2020-05-18 02:00:00 5.1 2 Sur 4 Sudoeste 0 -- -- 94
2020-05-18 01:00:00 6 2 Sur 6 Sur 0 -- -- 92
2020-05-18 00:00:00 7.3 0 Calma 4 Sur 0 -- -- 89
2020-05-17 23:00:00 9.2 0 Calma 5 Sudoeste 0 -- -- 83
2020-05-17 22:00:00 12.7 2 Sur 9 Norte 0 -- -- 73
2020-05-17 21:00:00 17.8 5 Norte 21 Norte 0 -- -- 51
2020-05-17 20:00:00 19.1 8 Norte 21 Norte 0 -- -- 48
2020-05-17 19:00:00 19.5 6 Norte 24 Norte 0 -- -- 44
2020-05-17 18:00:00 19 10 Norte 26 Norte 0 -- -- 51
2020-05-17 17:00:00 18.7 12 Norte 24 Norte 0 -- -- 52
2020-05-17 16:00:00 18 10 Norte 28 Norte 0 -- -- 53
2020-05-17 15:00:00 17.3 10 Norte 26 Noroeste 0 -- -- 62
2020-05-17 14:00:00 16.6 8 Norte 30 Norte 0 -- -- 55
2020-05-17 13:00:00 15.1 8 Norte 22 Noroeste 0 -- -- 65
2020-05-17 12:00:00 13.4 10 Norte 23 Norte 0 -- -- 68
2020-05-17 11:00:00 11.6 8 Norte 23 Norte 0 -- -- 67
2020-05-17 10:00:00 8.7 6 Norte 12 Norte 0 -- -- 84
2020-05-17 09:00:00 4.8 0 Calma 2 Sur 0 -- -- 100
2020-05-17 08:00:00 1.9 0 Calma 3 Sur 0 -- -- 99
2020-05-17 07:00:00 2.1 0 Calma 3 Sur 0 -- -- 98
2020-05-17 06:00:00 2.5 2 Sur 3 Sur 0 -- -- 98
2020-05-17 05:00:00 3.1 0 Calma 3 Sur 0 -- -- 98
2020-05-17 04:00:00 3.7 0 Calma 4 Sur 0 -- -- 97
2020-05-17 03:00:00 4.4 0 Calma 4 Sur 0 -- -- 96
2020-05-17 02:00:00 5.1 0 Calma 4 Sur 0 -- -- 95
2020-05-17 01:00:00 6.3 2 Sur 4 Sur 0 -- -- 93
2020-05-17 00:00:00 7.5 2 Sur 4 Sur 0 -- -- 91
2020-05-16 23:00:00 9.3 0 Calma 5 Sur 0 -- -- 87
2020-05-16 22:00:00 12.5 0 Calma 13 Noroeste 0 -- -- 77
2020-05-16 21:00:00 16.5 5 Norte 21 Norte 0 -- -- 57
2020-05-16 20:00:00 17.7 12 Norte 22 Noroeste 0 -- -- 54
2020-05-16 19:00:00 17.6 11 Norte 24 Noroeste 0 -- -- 56
2020-05-16 18:00:00 16.9 6 Norte 19 Noroeste 0 -- -- 61
2020-05-16 17:00:00 17.2 6 Noroeste 18 Noroeste 0 -- -- 62
2020-05-16 16:00:00 16.5 5 Norte 23 Noroeste 0 -- -- 63
2020-05-16 15:00:00 16.1 7 Norte 22 Norte 0 -- -- 65
2020-05-16 14:00:00 15.5 6 Este 20 Noroeste 0 -- -- 66
2020-05-16 13:00:00 14.1 9 Norte 20 Noroeste 0 -- -- 72
2020-05-16 12:00:00 12.2 5 Noroeste 21 Nordeste 0 -- -- 79
2020-05-16 11:00:00 9.6 6 Norte 13 Nordeste 0 -- -- 89
2020-05-16 10:00:00 8.3 3 Norte 10 Este 0 -- -- 92
2020-05-16 09:00:00 7.6 5 Norte 13 Norte 0 -- -- 94
2020-05-16 08:00:00 7.4 4 Norte 12 Noroeste 0 -- -- 96
2020-05-16 07:00:00 7.5 6 Norte 14 Norte 0 -- -- 96
2020-05-16 06:00:00 7.6 5 Noroeste 12 Norte 0 -- -- 96
2020-05-16 05:00:00 7.6 0 Calma 5 Norte 0 -- -- 97
2020-05-16 04:00:00 6.8 0 Calma 5 Noroeste 0 -- -- 100
2020-05-16 03:00:00 6.4 0 Calma 5 Nordeste 0 -- -- 97
2020-05-16 02:00:00 7 0 Calma 6 Norte 0 -- -- 97
2020-05-16 01:00:00 7.5 0 Calma 7 Nordeste 0 -- -- 96
2020-05-16 00:00:00 8.3 0 Calma 4 Sur 0 -- -- 91
2020-05-15 23:00:00 10.4 0 Calma 5 Norte 0 -- -- 88
2020-05-15 22:00:00 11.2 0 Calma 5 Nordeste 0 -- -- 85
2020-05-15 21:00:00 12.1 4 Norte 19 Norte 0 -- -- 78
2020-05-15 20:00:00 14.1 5 Este 20 Noroeste 0 -- -- 63
2020-05-15 19:00:00 14.9 4 Norte 19 Noroeste 0 -- -- 63
2020-05-15 18:00:00 15.5 7 Norte 23 Norte 0 -- -- 61
2020-05-15 17:00:00 14.9 12 Norte 28 Norte 0 -- -- 64
2020-05-15 16:00:00 14.5 10 Norte 24 Norte 0 -- -- 66
2020-05-15 15:00:00 14.9 11 Norte 28 Norte 0 -- -- 67
2020-05-15 14:00:00 14 12 Norte 22 Norte 0 -- -- 73
2020-05-15 13:00:00 13 10 Norte 22 Noroeste 0 -- -- 79
2020-05-15 12:00:00 12.7 9 Norte 20 Norte 0 -- -- 82
2020-05-15 11:00:00 12.3 5 Norte 14 Norte 0 -- -- 85
2020-05-15 10:00:00 10.7 4 Nordeste 13 Norte 0 -- -- 94
2020-05-15 09:00:00 9.7 2 Norte 6 Norte 0 -- -- 100
2020-05-15 08:00:00 8.6 0 Calma 0 Calma 0 -- -- 98
2020-05-15 07:00:00 8.8 0 Calma 2 Norte 0 -- -- 99
2020-05-15 06:00:00 8.6 0 Calma 4 Sur 0 -- -- 98
2020-05-15 05:00:00 8.9 0 Calma 4 Oeste 0 -- -- 98
2020-05-15 04:00:00 9.4 4 Sur 9 Sudeste 0 -- -- 97
2020-05-15 03:00:00 9.5 0 Calma 13 Sudeste 0 -- -- 97
2020-05-15 02:00:00 9.6 5 Sudeste 18 Sudeste 0.2 -- -- 95
2020-05-15 01:00:00 9.9 3 Sur 10 Sudeste 0 -- -- 91
2020-05-15 00:00:00 10 3 Este 14 Sudeste 0 -- -- 91
2020-05-14 23:00:00 10.2 6 Sudeste 22 Sur 0 -- -- 88
2020-05-14 22:00:00 10.3 7 Sudeste 15 Este 0 -- -- 89
2020-05-14 21:00:00 11 5 Este 13 Sudeste 0 -- -- 87
2020-05-14 20:00:00 11.8 3 Este 19 Sudeste 0 -- -- 79
2020-05-14 19:00:00 12.4 9 Sudeste 27 Sudeste 0 -- -- 72
2020-05-14 18:00:00 13.1 6 Este 19 Sudeste 0 -- -- 72
2020-05-14 17:00:00 11.7 9 Sudeste 21 Sur 0 -- -- 75
2020-05-14 16:00:00 12 7 Sudeste 21 Sudeste 0 -- -- 70
2020-05-14 15:00:00 11.4 6 Este 21 Sudeste 0 -- -- 67
2020-05-14 14:00:00 11.4 4 Este 15 Sudeste 0 -- -- 75
2020-05-14 13:00:00 9.6 6 Sudeste 15 Sudeste 0 -- -- 80
2020-05-14 12:00:00 8.8 5 Sudeste 15 Sudeste 0 -- -- 89
2020-05-14 11:00:00 7.9 5 Sudeste 14 Sudeste 0 -- -- 93
2020-05-14 10:00:00 7.5 4 Sur 10 Sur 0 -- -- 96
2020-05-14 09:00:00 6.4 3 Sur 9 Sudeste 0 -- -- 99
2020-05-14 08:00:00 5.7 0 Calma 10 Sur 0 -- -- 99
2020-05-14 07:00:00 5.5 4 Sur 6 Sur 0 -- -- 98
2020-05-14 06:00:00 6.3 0 Calma 14 Sudoeste 0.2 -- -- 97
2020-05-14 05:00:00 6.8 0 Calma 6 Sudoeste 0.4 -- -- 98
2020-05-14 04:00:00 6.9 3 Sur 26 Sudoeste 2.4 -- -- 97
2020-05-14 03:00:00 8.3 6 Sur 18 Sur 3.4 -- -- 96
2020-05-14 02:00:00 8.6 2 Este 13 Sudeste 0.6 -- -- 96
2020-05-14 01:00:00 8.8 4 Sudeste 12 Este 0.2 -- -- 95
2020-05-14 00:00:00 9.1 4 Sur 13 Este 2.4 -- -- 94
2020-05-13 23:00:00 9.3 0 Calma 10 Sudeste 0.4 -- -- 95
2020-05-13 22:00:00 9.7 2 Sudeste 18 Sudeste 1.6 -- -- 94
2020-05-13 21:00:00 10.4 3 Este 22 Sur 0.8 -- -- 90
2020-05-13 20:00:00 12.1 12 Sur 27 Sur 0 -- -- 76
2020-05-13 19:00:00 12.8 14 Sur 33 Sudeste 0 -- -- 73
2020-05-13 18:00:00 13 15 Sudeste 31 Sudeste 0 -- -- 73
2020-05-13 17:00:00 12.5 11 Sudeste 30 Sudeste 0 -- -- 79
2020-05-13 16:00:00 14.4 15 Sudeste 33 Sur 0 -- -- 68
2020-05-13 15:00:00 13 16 Sur 31 Sudeste 0 -- -- 75
2020-05-13 14:00:00 12.2 13 Sur 27 Sur 0 -- -- 79
2020-05-13 13:00:00 11.8 12 Sur 28 Sur 0 -- -- 82
2020-05-13 12:00:00 11.7 13 Sur 23 Sur 0 -- -- 79
2020-05-13 11:00:00 11.1 10 Sur 24 Sur 0 -- -- 82
2020-05-13 10:00:00 9.3 8 Sudoeste 19 Sudoeste 0 -- -- 92
2020-05-13 09:00:00 9 10 Sur 22 Sudoeste 0 -- -- 93
2020-05-13 08:00:00 9.3 5 Sur 17 Sur 0 -- -- 96
2020-05-13 07:00:00 9.2 4 Sur 8 Sudoeste 0 -- -- 97
2020-05-13 06:00:00 9.1 2 Sur 12 Sur 0 -- -- 96
2020-05-13 05:00:00 9 8 Sur 18 Sur 0 -- -- 96
2020-05-13 04:00:00 9.2 8 Sur 15 Sur 0 -- -- 95
2020-05-13 03:00:00 9.2 4 Sur 11 Sur 0 -- -- 95
2020-05-13 02:00:00 9.6 4 Sur 8 Sur 0 -- -- 94
2020-05-13 01:00:00 9.3 2 Norte 14 Sur 0 -- -- 95
2020-05-13 00:00:00 9.2 5 Sur 13 Sur 0 -- -- 92
2020-05-12 23:00:00 9.8 5 Sur 14 Sudeste 0 -- -- 85
2020-05-12 22:00:00 10.6 3 Sudeste 14 Sur 0 -- -- 84
2020-05-12 21:00:00 12.2 5 Sur 13 Sur 0 -- -- 82
2020-05-12 20:00:00 13.9 9 Sur 17 Sur 0 -- -- 78
2020-05-12 19:00:00 12.6 7 Sudeste 14 Sudeste 0 -- -- 80
2020-05-12 18:00:00 13.1 4 Oeste 11 Sur 0 -- -- 80
2020-05-12 17:00:00 13.3 4 Sudeste 8 Sur 0 -- -- 77
2020-05-12 16:00:00 13.2 2 Sudoeste 7 Norte 0 -- -- 77
2020-05-12 15:00:00 12.3 4 Noroeste 10 Noroeste 0.8 -- -- 91
2020-05-12 14:00:00 10.9 4 Sur 21 Este 2.6 -- -- 92
2020-05-12 13:00:00 13.6 4 Nordeste 11 Norte 0 -- -- 76
2020-05-12 12:00:00 12.5 3 Este 8 Este 0 -- -- 88
2020-05-12 11:00:00 11.3 4 Norte 9 Norte 0 -- -- 98
2020-05-12 10:00:00 9.2 0 Calma 3 Sur 0 -- -- 100
2020-05-12 09:00:00 5.5 0 Calma 3 Sudeste 0 -- -- 100
2020-05-12 08:00:00 3.6 0 Calma 3 Sudoeste 0 -- -- 100
2020-05-12 07:00:00 3.4 0 Calma 3 Sur 0 -- -- 100
2020-05-12 06:00:00 3.4 0 Calma 3 Sur 0 -- -- 100
2020-05-12 05:00:00 4.5 2 Sur 2 Sur 0 -- -- 100
2020-05-12 04:00:00 4.6 0 Calma 4 Sur 0 -- -- 99
2020-05-12 03:00:00 5.5 2 Sur 5 Sur 0 -- -- 98
2020-05-12 02:00:00 6.7 2 Sur 4 Sur 0 -- -- 98
2020-05-12 01:00:00 8.5 2 Sudoeste 8 Sur 0 -- -- 96
2020-05-12 00:00:00 10.6 0 Calma 12 Sudoeste 0 -- -- 95
2020-05-11 23:00:00 11.4 4 Sur 17 Sudoeste 0 -- -- 95
2020-05-11 22:00:00 11.6 9 Sur 21 Sur 0.2 -- -- 95
2020-05-11 21:00:00 11.9 9 Sur 19 Sudoeste 0.4 -- -- 94
2020-05-11 20:00:00 12.4 8 Sur 27 Sur 1.8 -- -- 94
2020-05-11 19:00:00 13.4 10 Sur 22 Sudoeste 0.4 -- -- 88
2020-05-11 18:00:00 13.9 6 Sudoeste 22 Sudoeste 0 -- -- 87
2020-05-11 17:00:00 14 6 Sur 21 Sudoeste 1.6 -- -- 91
2020-05-11 16:00:00 15.3 14 Sur 26 Sur 0 -- -- 76
2020-05-11 15:00:00 14.1 10 Sudoeste 24 Sur 0.4 -- -- 81
2020-05-11 14:00:00 12.7 8 Sur 25 Sudoeste 1.4 -- -- 92
2020-05-11 13:00:00 12.1 9 Sur 27 Sudoeste 0.4 -- -- 90
2020-05-11 12:00:00 12.6 14 Sur 30 Sur 0.6 -- -- 94
2020-05-11 11:00:00 10.9 12 Sur 34 Sur 0.8 -- -- 95
2020-05-11 10:00:00 10 4 Sudeste 19 Sur 0.6 -- -- 95
2020-05-11 09:00:00 9.6 9 Sur 22 Sur 0.2 -- -- 96
2020-05-11 08:00:00 9.6 8 Sur 17 Sudeste 1.4 -- -- 98
2020-05-11 07:00:00 9.1 7 Sur 17 Sur 0.8 -- -- 98
2020-05-11 06:00:00 8.9 6 Sur 21 Sur 1.8 -- -- 96
2020-05-11 05:00:00 9.1 16 Sur 32 Sudoeste 0.8 -- -- 96
2020-05-11 04:00:00 9.1 5 Sur 30 Oeste 0 -- -- 92
2020-05-11 03:00:00 9.3 10 Sudoeste 27 Sudoeste 0 -- -- 93
2020-05-11 02:00:00 9.5 12 Sur 27 Sur 0 -- -- 93
2020-05-11 01:00:00 8.5 4 Sur 7 Sur 0 -- -- 94
2020-05-11 00:00:00 8.9 3 Sur 10 Sudoeste 0 -- -- 90
2020-05-10 23:00:00 10.1 4 Sur 10 Sudoeste 0 -- -- 85
2020-05-10 22:00:00 11.1 3 Sudoeste 15 Sur 0 -- -- 79
2020-05-10 21:00:00 13.1 8 Sudoeste 20 Sudoeste 0 -- -- 73
2020-05-10 20:00:00 14.1 10 Sudoeste 22 Sudoeste 0 -- -- 71
2020-05-10 19:00:00 14 10 Sudoeste 27 Sur 0 -- -- 72
2020-05-10 18:00:00 14 10 Sudoeste 27 Sur 0 -- -- 73
2020-05-10 17:00:00 14.1 8 Sudoeste 17 Sudoeste 0 -- -- 74
2020-05-10 16:00:00 12.5 6 Sudoeste 24 Sur 0.2 -- -- 84
2020-05-10 15:00:00 12.6 10 Sudoeste 20 Sur 0.6 -- -- 89
2020-05-10 14:00:00 11.6 5 Sudoeste 17 Sudoeste 0 -- -- 80
2020-05-10 13:00:00 11.6 5 Oeste 14 Oeste 0 -- -- 79
2020-05-10 12:00:00 10.6 7 Sudoeste 12 Sudoeste 0 -- -- 88
2020-05-10 11:00:00 9.3 6 Sudoeste 13 Sudoeste 0 -- -- 92
2020-05-10 10:00:00 9 4 Sudeste 9 Sur 0.2 -- -- 96
2020-05-10 09:00:00 7.8 0 Calma 4 Sudeste 0.2 -- -- 100
2020-05-10 08:00:00 6.4 0 Calma 5 Nordeste 0 -- -- 100
2020-05-10 07:00:00 6.2 0 Calma 3 Noroeste 0 -- -- 100
2020-05-10 06:00:00 5.3 0 Calma 5 Sudoeste 0 -- -- 100
2020-05-10 05:00:00 4.6 0 Calma 5 Sur 0 -- -- 100
2020-05-10 04:00:00 4.4 0 Calma 3 Nordeste 0 -- -- 99
2020-05-10 03:00:00 5.9 0 Calma 4 Oeste 0 -- -- 100
2020-05-10 02:00:00 5.6 0 Calma 7 Sudoeste 0 -- -- 99
2020-05-10 01:00:00 5.5 3 Sur 6 Sudoeste 0 -- -- 98
2020-05-10 00:00:00 6.5 3 Sur 7 Sur 0 -- -- 96
2020-05-09 23:00:00 8 0 Calma 4 Sur 0 -- -- 98
2020-05-09 22:00:00 8.3 0 Calma 4 Nordeste 0.2 -- -- 97
2020-05-09 21:00:00 8.6 3 Sur 27 Oeste 2.8 -- -- 89
2020-05-09 20:00:00 10.8 9 Sur 34 Sur 0.2 -- -- 94
2020-05-09 19:00:00 11.1 15 Sur 41 Sur 2.8 -- -- 95
2020-05-09 18:00:00 11.9 21 Sur 41 Sur 0.8 -- -- 87
2020-05-09 17:00:00 16.3 20 Sur 36 Sudoeste 0 -- -- 58
2020-05-09 16:00:00 16 18 Sur 32 Sudeste 0 -- -- 57
2020-05-09 15:00:00 13.9 17 Sur 37 Sudoeste 0 -- -- 72
2020-05-09 14:00:00 15.1 13 Sur 30 Sudeste 0 -- -- 68
2020-05-09 13:00:00 12.8 14 Sur 39 Sur 0 -- -- 74
2020-05-09 12:00:00 12.3 12 Sur 29 Sudoeste 0 -- -- 78
2020-05-09 11:00:00 11.5 6 Sur 21 Sur 0 -- -- 82
2020-05-09 10:00:00 11.1 6 Sudoeste 21 Sur 0 -- -- 85
2020-05-09 09:00:00 10.2 6 Sudoeste 17 Sudoeste 0 -- -- 87
2020-05-09 08:00:00 10 4 Sur 22 Sudeste 0 -- -- 92
2020-05-09 07:00:00 10.6 7 Sur 17 Sur 0 -- -- 93
2020-05-09 06:00:00 10.7 0 Calma 17 Sur 0 -- -- 99
2020-05-09 05:00:00 10.9 12 Sur 24 Sur 0 -- -- 99
2020-05-09 04:00:00 9.4 0 Calma 8 Sudoeste 0 -- -- 99
2020-05-09 03:00:00 8 2 Sur 4 Sudoeste 0 -- -- 97
2020-05-09 02:00:00 8.3 0 Calma 6 Sur 0 -- -- 95
2020-05-09 01:00:00 9.3 0 Calma 3 Sur 0 -- -- 91
2020-05-09 00:00:00 10.8 2 Sur 4 Sur 0 -- -- 90
2020-05-08 23:00:00 12.4 0 Calma 3 Sur 0 -- -- 84
2020-05-08 22:00:00 14.7 0 Calma 17 Sudoeste 0 -- -- 77
2020-05-08 21:00:00 17.7 5 Sudoeste 21 Sudoeste 0 -- -- 67
2020-05-08 20:00:00 19.4 10 Sudoeste 29 Sudoeste 0 -- -- 58
2020-05-08 19:00:00 19.5 12 Sur 33 Sur 0 -- -- 58
2020-05-08 18:00:00 19.5 18 Sur 38 Sudoeste 0 -- -- 59
2020-05-08 17:00:00 20.1 17 Sur 33 Sur 0 -- -- 62
2020-05-08 16:00:00 19.8 14 Sur 28 Sur 0 -- -- 68
2020-05-08 15:00:00 18.6 13 Sur 30 Sur 0 -- -- 69
2020-05-08 14:00:00 18.6 13 Sur 25 Sur 0 -- -- 70
2020-05-08 13:00:00 18.2 10 Sur 23 Sudoeste 0 -- -- 71
2020-05-08 12:00:00 16.1 14 Sur 35 Sur 0 -- -- 74
2020-05-08 11:00:00 15.8 15 Sur 35 Sur 0 -- -- 73
2020-05-08 10:00:00 15.2 10 Sur 20 Sur 0 -- -- 74
2020-05-08 09:00:00 13.8 0 Calma 6 Este 0 -- -- 87
2020-05-08 08:00:00 13.1 0 Calma 20 Sudoeste 0 -- -- 85
2020-05-08 07:00:00 14 5 Sur 25 Sudoeste 0 -- -- 81
2020-05-08 06:00:00 14.1 6 Sudoeste 17 Sur 0 -- -- 79
2020-05-08 05:00:00 13.4 9 Sur 17 Sur 0 -- -- 88
2020-05-08 04:00:00 10.7 0 Calma 4 Nordeste 0 -- -- 92
2020-05-08 03:00:00 11 0 Calma 2 Sur 0 -- -- 92
2020-05-08 02:00:00 11.7 0 Calma 2 Nordeste 0 -- -- 91
2020-05-08 01:00:00 12.2 0 Calma 3 Sudeste 0 -- -- 90
2020-05-08 00:00:00 12.3 0 Calma 4 Sur 0 -- -- 89
2020-05-07 23:00:00 13.8 0 Calma 3 Sur 0 -- -- 85
2020-05-07 22:00:00 15.3 0 Calma 3 Noroeste 0 -- -- 80
2020-05-07 21:00:00 18.3 0 Calma 14 Sudoeste 0 -- -- 67
2020-05-07 20:00:00 20.6 10 Sur 23 Sur 0 -- -- 59
2020-05-07 19:00:00 21.7 13 Sur 32 Sudoeste 0 -- -- 55
2020-05-07 18:00:00 21.3 14 Sudeste 30 Sur 0 -- -- 56
2020-05-07 17:00:00 20.6 3 Noroeste 16 Este 0 -- -- 57
2020-05-07 16:00:00 20.1 9 Sudeste 31 Este 0 -- -- 56
2020-05-07 15:00:00 21.9 12 Sur 30 Sudeste 0 -- -- 53
2020-05-07 14:00:00 21.2 12 Sudeste 26 Este 0 -- -- 50
2020-05-07 13:00:00 21 10 Sudeste 31 Sudeste 0 -- -- 49
2020-05-07 12:00:00 20.8 13 Sudeste 24 Sudeste 0 -- -- 43
2020-05-07 11:00:00 16.8 4 Norte 8 Norte 0 -- -- 65
2020-05-07 10:00:00 12.6 0 Calma 3 Sur 0 -- -- 80
2020-05-07 09:00:00 8.7 0 Calma 3 Sur 0 -- -- 97
2020-05-07 08:00:00 7.3 0 Calma 4 Sur 0 -- -- 97
2020-05-07 07:00:00 7.2 0 Calma 5 Sur 0 -- -- 97
2020-05-07 06:00:00 7.2 0 Calma 5 Sur 0 -- -- 95
2020-05-07 05:00:00 7.5 2 Sur 4 Sur 0 -- -- 94
2020-05-07 04:00:00 8.1 0 Calma 6 Sur 0 -- -- 94
2020-05-07 03:00:00 8.2 2 Sur 5 Sudoeste 0 -- -- 91
2020-05-07 02:00:00 9.3 2 Sur 4 Sur 0 -- -- 91
2020-05-07 01:00:00 9.9 0 Calma 5 Sur 0 -- -- 88
2020-05-07 00:00:00 10.6 3 Sur 4 Sur 0 -- -- 85
2020-05-06 23:00:00 12.2 2 Sur 4 Sur 0 -- -- 80
2020-05-06 22:00:00 14.7 3 Sur 12 Norte 0 -- -- 72
2020-05-06 21:00:00 18.9 5 Noroeste 15 Norte 0 -- -- 53
2020-05-06 20:00:00 20 6 Norte 13 Noroeste 0 -- -- 48
2020-05-06 19:00:00 20.5 8 Norte 16 Norte 0 -- -- 49
2020-05-06 18:00:00 20.6 5 Sur 15 Sudeste 0 -- -- 52
2020-05-06 17:00:00 19.9 7 Sur 19 Sudeste 0 -- -- 52
2020-05-06 16:00:00 19 7 Sur 16 Este 0 -- -- 56
2020-05-06 15:00:00 18.8 7 Este 14 Este 0 -- -- 56
2020-05-06 14:00:00 17.8 4 Sudoeste 16 Sur 0 -- -- 64
2020-05-06 13:00:00 16.9 4 Sur 12 Sudeste 0 -- -- 59
2020-05-06 12:00:00 15 4 Sudeste 13 Sudeste 0 -- -- 69
2020-05-06 11:00:00 12.7 3 Norte 10 Sudeste 0 -- -- 83
2020-05-06 10:00:00 10.7 2 Este 6 Este 0 -- -- 99
2020-05-06 09:00:00 9.3 0 Calma 3 Norte 0 -- -- 100
2020-05-06 08:00:00 7.7 0 Calma 2 Sur 0 -- -- 100
2020-05-06 07:00:00 6.4 0 Calma 4 Sur 0 -- -- 100
2020-05-06 06:00:00 4.3 3 Sudoeste 4 Sudoeste 0 -- -- 98
2020-05-06 05:00:00 4.5 0 Calma 3 Sur 0 -- -- 97
2020-05-06 04:00:00 5.3 0 Calma 4 Sur 0 -- -- 96
2020-05-06 03:00:00 5.8 0 Calma 4 Sur 0 -- -- 95
2020-05-06 02:00:00 6.5 0 Calma 2 Sudoeste 0 -- -- 92
2020-05-06 01:00:00 7.8 0 Calma 5 Sudoeste 0 -- -- 90
2020-05-06 00:00:00 9.2 3 Sur 12 Sudeste 0 -- -- 87
2020-05-05 23:00:00 10.5 0 Calma 10 Sur 0 -- -- 82
2020-05-05 22:00:00 13.2 5 Sudeste 10 Sudeste 0 -- -- 71
2020-05-05 21:00:00 15.8 5 Sudoeste 17 Sudoeste 0 -- -- 61
2020-05-05 20:00:00 16.7 11 Sudoeste 22 Sudoeste 0 -- -- 60
2020-05-05 19:00:00 17.4 10 Sudoeste 22 Sur 0 -- -- 56
2020-05-05 18:00:00 17.8 12 Sur 28 Sur 0 -- -- 61
2020-05-05 17:00:00 18.1 13 Sudoeste 25 Sur 0 -- -- 59
2020-05-05 16:00:00 16.9 9 Oeste 26 Sudoeste 0 -- -- 58
2020-05-05 15:00:00 17.2 10 Sur 22 Sur 0 -- -- 61
2020-05-05 14:00:00 15.8 9 Sudoeste 18 Sur 0 -- -- 62
2020-05-05 13:00:00 15 6 Sudoeste 19 Sudoeste 0 -- -- 62
2020-05-05 12:00:00 13.7 5 Sudoeste 22 Sur 0 -- -- 68
2020-05-05 11:00:00 12.1 11 Sudoeste 23 Sur 0 -- -- 74
2020-05-05 10:00:00 11 8 Sur 19 Sur 0 -- -- 82
2020-05-05 09:00:00 8.6 3 Sur 9 Sur 0 -- -- 97
2020-05-05 08:00:00 6.7 0 Calma 8 Sudeste 0 -- -- 98
2020-05-05 07:00:00 4.9 2 Sur 5 Sudeste 0 -- -- 98
2020-05-05 06:00:00 4.8 0 Calma 5 Sur 0 -- -- 96
2020-05-05 05:00:00 5.7 0 Calma 4 Sur 0 -- -- 94
2020-05-05 04:00:00 6.6 0 Calma 3 Nordeste 0 -- -- 91
2020-05-05 03:00:00 9 2 Nordeste 17 Sudoeste 0 -- -- 87
2020-05-05 02:00:00 10.4 7 Sudoeste 22 Sudoeste 0 -- -- 82
2020-05-05 01:00:00 11.2 8 Sudoeste 22 Sudoeste 0 -- -- 80
2020-05-05 00:00:00 11.5 9 Sur 20 Sudoeste 0 -- -- 79
2020-05-04 23:00:00 12.4 7 Sudoeste 21 Sur 0 -- -- 81
2020-05-04 22:00:00 12.9 12 Sur 30 Sur 0 -- -- 79
2020-05-04 21:00:00 14.6 15 Sudoeste 29 Sur 0 -- -- 79
2020-05-04 20:00:00 15.6 13 Sur 38 Sudoeste 0 -- -- 76
2020-05-04 19:00:00 16.6 19 Sudoeste 43 Sur 0 -- -- 69
2020-05-04 18:00:00 17.4 23 Sudoeste 49 Sudoeste 0 -- -- 72
2020-05-04 17:00:00 17.8 24 Sudoeste 48 Sudoeste 0 -- -- 67
2020-05-04 16:00:00 16.2 22 Sudoeste 47 Sur 0 -- -- 78
2020-05-04 15:00:00 16.7 18 Sur 41 Sudoeste 0 -- -- 83
2020-05-04 14:00:00 17.6 18 Sur 47 Sur 0 -- -- 77
2020-05-04 13:00:00 18.1 23 Sur 54 Sur 0 -- -- 67
2020-05-04 12:00:00 19.3 28 Sur 43 Sudoeste 0 -- -- 58
2020-05-04 11:00:00 19.1 20 Sur 39 Sur 0 -- -- 55
2020-05-04 10:00:00 19.6 18 Sur 33 Sur 0 -- -- 51
2020-05-04 09:00:00 19.1 14 Sudeste 36 Sudeste 0 -- -- 50
2020-05-04 08:00:00 19.4 13 Sudeste 32 Sudeste 0 -- -- 49
2020-05-04 07:00:00 19.2 8 Sudeste 29 Sur 0 -- -- 51
2020-05-04 06:00:00 19.4 9 Sur 25 Sur 0 -- -- 51
2020-05-04 05:00:00 19.8 10 Sur 22 Sur 0 -- -- 50
2020-05-04 04:00:00 18.6 7 Sur 17 Sudeste 0 -- -- 56
2020-05-04 03:00:00 19.2 5 Sur 18 Sur 0 -- -- 54
2020-05-04 02:00:00 20.6 7 Sudeste 22 Sudeste 0 -- -- 51
2020-05-04 01:00:00 19.5 8 Sudeste 17 Sudeste 0 -- -- 55
2020-05-04 00:00:00 17.2 3 Este 10 Sur 0 -- -- 68
2020-05-03 23:00:00 18.7 3 Sur 19 Sur 0 -- -- 65
2020-05-03 22:00:00 17.3 0 Calma 5 Sudoeste 0 -- -- 73
2020-05-03 21:00:00 21.7 2 Sur 17 Sur 0 -- -- 55
2020-05-03 20:00:00 22.9 10 Sur 29 Sur 0 -- -- 51
2020-05-03 19:00:00 23.9 16 Sur 34 Sudeste 0 -- -- 47
2020-05-03 18:00:00 24.3 14 Sur 32 Sudoeste 0 -- -- 51
2020-05-03 17:00:00 24.2 14 Sur 34 Sur 0 -- -- 46
2020-05-03 16:00:00 23.6 15 Sudeste 36 Sudeste 0 -- -- 48
2020-05-03 15:00:00 22.8 15 Sur 33 Sur 0 -- -- 53
2020-05-03 14:00:00 22.2 16 Sudeste 31 Este 0 -- -- 53
2020-05-03 13:00:00 22.4 12 Sudeste 27 Sudeste 0 -- -- 51
2020-05-03 12:00:00 21.4 11 Sur 28 Sudeste 0 -- -- 53
2020-05-03 11:00:00 19.9 9 Sudeste 16 Sudeste 0 -- -- 62
2020-05-03 10:00:00 14.2 0 Calma 4 Nordeste 0 -- -- 100
2020-05-03 09:00:00 9.6 0 Calma 3 Sur 0 -- -- 100
2020-05-03 08:00:00 5.5 0 Calma -- -- 0 -- -- 100
2020-05-03 07:00:00 5.2 0 Calma -- -- 0 -- -- 99
2020-05-03 06:00:00 5.2 0 Calma -- -- 0 -- -- 99
2020-05-03 05:00:00 5.1 0 Calma -- -- 0 -- -- 98
2020-05-03 04:00:00 5.5 0 Calma -- -- 0 -- -- 97
2020-05-03 03:00:00 6.4 0 Calma 4 Sur 0 -- -- 96
2020-05-03 02:00:00 7.2 2 Sur 6 Sur 0 -- -- 95
2020-05-03 01:00:00 8.2 2 Sudeste 5 Sur 0 -- -- 94
2020-05-03 00:00:00 9.4 3 Sur 5 Sur 0 -- -- 91
2020-05-02 23:00:00 11.1 3 Sur 6 Sur 0 -- -- 87
2020-05-02 22:00:00 14.6 0 Calma 6 Sur 0 -- -- 75
2020-05-02 21:00:00 18.7 6 Sur 16 Sudoeste 0 -- -- 64
2020-05-02 20:00:00 20.4 8 Sudoeste 17 Sudoeste 0 -- -- 56
2020-05-02 19:00:00 20.7 10 Sur 21 Sur 0 -- -- 56
2020-05-02 18:00:00 20.7 11 Sur 22 Sudoeste 0 -- -- 57
2020-05-02 17:00:00 21 7 Sudoeste 25 Sur 0 -- -- 57
2020-05-02 16:00:00 20.6 10 Sudoeste 21 Sur 0 -- -- 57
2020-05-02 15:00:00 19.6 9 Sudoeste 26 Sur 0 -- -- 54
2020-05-02 14:00:00 18.8 10 Sudoeste 23 Sur 0 -- -- 55
2020-05-02 13:00:00 17.8 8 Sudoeste 23 Sudoeste 0 -- -- 54
2020-05-02 12:00:00 17 7 Sudoeste 19 Sudoeste 0 -- -- 51
2020-05-02 11:00:00 12.2 5 Norte 9 Norte 0 -- -- 100
2020-05-02 10:00:00 9.5 4 Norte 8 Norte 0 -- -- 100
2020-05-02 09:00:00 6.7 0 Calma 2 Sudoeste 0 -- -- 100
2020-05-02 08:00:00 4.2 2 Sur 4 Sudoeste 0 -- -- 100
2020-05-02 07:00:00 4.4 0 Calma 5 Sudoeste 0 -- -- 100
2020-05-02 06:00:00 4.7 2 Sur 3 Sur 0 -- -- 99
2020-05-02 05:00:00 5.3 0 Calma 5 Sur 0 -- -- 99
2020-05-02 04:00:00 5.6 0 Calma 4 Sur 0 -- -- 99
2020-05-02 03:00:00 6.1 0 Calma 4 Sur 0 -- -- 98
2020-05-02 02:00:00 7.1 2 Sur 5 Sudoeste 0 -- -- 97
2020-05-02 01:00:00 8.2 3 Sur 4 Sur 0 -- -- 96
2020-05-02 00:00:00 9.9 0 Calma 5 Sur 0 -- -- 95
2020-05-01 23:00:00 12.1 0 Calma 8 Sudeste 0 -- -- 89
2020-05-01 22:00:00 14.1 3 Oeste 14 Sudoeste 0 -- -- 86
2020-05-01 21:00:00 15.5 9 Sudoeste 17 Sudoeste 0 -- -- 85
2020-05-01 20:00:00 16.2 11 Sur 22 Sudoeste 0 -- -- 83
2020-05-01 19:00:00 16.8 10 Sur 22 Sudoeste 0 -- -- 81
2020-05-01 18:00:00 17.1 10 Sudoeste 21 Sudoeste 0 -- -- 83
2020-05-01 17:00:00 16.5 9 Sudoeste 20 Sudoeste 0 -- -- 81
2020-05-01 16:00:00 15.9 9 Sudoeste 21 Sudoeste 0 -- -- 83
2020-05-01 15:00:00 15.8 7 Sudoeste 19 Sur 0 -- -- 83
2020-05-01 14:00:00 14.7 8 Sur 21 Sudoeste 0 -- -- 88
2020-05-01 13:00:00 14.2 12 Sudoeste 25 Sur 0 -- -- 89
2020-05-01 12:00:00 12.7 9 Sur 23 Sur 0 -- -- 94
2020-05-01 11:00:00 12.1 11 Sudoeste 25 Sur 0 -- -- 97
2020-05-01 10:00:00 11.7 9 Sudoeste 23 Sur 0 -- -- 97
2020-05-01 09:00:00 10.7 8 Sudoeste 24 Sudoeste 0 -- -- 100
2020-05-01 08:00:00 10.3 9 Sudoeste 24 Sudoeste 0 -- -- 100
2020-05-01 07:00:00 10 6 Sudoeste 28 Sudoeste 0 -- -- 100
2020-05-01 06:00:00 10 13 Sudoeste 26 Sur 0 -- -- 100
2020-05-01 05:00:00 9.9 14 Sur 27 Sudoeste 0 -- -- 99
2020-05-01 04:00:00 10.2 10 Sudoeste 24 Sudoeste 0 -- -- 96
2020-05-01 03:00:00 10.1 6 Sudoeste 28 Sudoeste 0 -- -- 95
2020-05-01 02:00:00 10.1 10 Sudoeste 22 Sudoeste 0 -- -- 93
2020-05-01 01:00:00 10.2 8 Sudoeste 23 Sur 0 -- -- 91
2020-05-01 00:00:00 10.1 10 Sudoeste 23 Sudoeste 0 -- -- 90
2020-04-30 23:00:00 10.2 4 Sur 15 Sur 0 -- -- 90
2020-04-30 22:00:00 10.8 9 Sur 18 Sur 0 -- -- 90
2020-04-30 21:00:00 11.8 7 Sudoeste 28 Sudoeste 0 -- -- 84
2020-04-30 20:00:00 13 10 Sudoeste 27 Sudoeste 0 -- -- 79
2020-04-30 19:00:00 14.4 11 Sudoeste 27 Sudoeste 0 -- -- 73
2020-04-30 18:00:00 13.5 7 Sudoeste 26 Sur 0 -- -- 77
2020-04-30 17:00:00 13.5 9 Sudoeste 29 Sudoeste 0 -- -- 74
2020-04-30 16:00:00 13.6 15 Sudoeste 30 Sur 0 -- -- 71
2020-04-30 15:00:00 13.6 12 Sudoeste 26 Sur 0 -- -- 72
2020-04-30 14:00:00 12.6 11 Sudoeste 27 Sudoeste 0 -- -- 76
2020-04-30 13:00:00 12.5 10 Sudoeste 28 Sur 0 -- -- 79
2020-04-30 12:00:00 11.6 9 Sudoeste 26 Sur 0 -- -- 83
2020-04-30 11:00:00 10.6 8 Sudoeste 21 Oeste 0 -- -- 87
2020-04-30 10:00:00 9.2 6 Sudoeste 21 Oeste 0 -- -- 90
2020-04-30 09:00:00 8.4 10 Oeste 18 Oeste 0 -- -- 89
2020-04-30 08:00:00 7.8 6 Sudoeste 22 Sur 0 -- -- 98
2020-04-30 07:00:00 7.5 10 Sudoeste 21 Sudoeste 0 -- -- 99
2020-04-30 06:00:00 7.5 8 Sur 22 Sur 0 -- -- 96
2020-04-30 05:00:00 7.5 2 Nordeste 16 Sur 0 -- -- 96
2020-04-30 04:00:00 7.3 2 Noroeste 21 Sur 0 -- -- 95
2020-04-30 03:00:00 6.8 5 Sur 13 Sudoeste 0 -- -- 95
2020-04-30 02:00:00 6.4 0 Calma 8 Sur 0 -- -- 95
2020-04-30 01:00:00 6.6 0 Calma 5 Nordeste 0 -- -- 95
2020-04-30 00:00:00 6.8 0 Calma 10 Sudoeste 0 -- -- 94
2020-04-29 23:00:00 7.4 2 Nordeste 9 Oeste 0 -- -- 93
2020-04-29 22:00:00 9 6 Oeste 13 Oeste 0 -- -- 86
2020-04-29 21:00:00 10.2 5 Sudoeste 25 Sur 0 -- -- 83
2020-04-29 20:00:00 12.6 11 Sudoeste 31 Sur 0 -- -- 76
2020-04-29 19:00:00 12.4 13 Sudoeste 36 Sur 0 -- -- 86
2020-04-29 18:00:00 12 17 Sur 41 Sudoeste 0 -- -- 91
2020-04-29 17:00:00 11 16 Sudoeste 30 Sur 0.6 -- -- 98
2020-04-29 16:00:00 10.5 13 Sur 27 Sudoeste 0.4 -- -- 97
2020-04-29 15:00:00 11.7 15 Sur 33 Sudoeste 0.6 -- -- 95
2020-04-29 14:00:00 10.5 19 Sur 36 Sudoeste 0.6 -- -- 96
2020-04-29 13:00:00 9.4 18 Sur 36 Sudoeste 0 -- -- 93
2020-04-29 12:00:00 9.4 17 Sur 39 Sur 0 -- -- 87
2020-04-29 11:00:00 8.9 9 Sudoeste 22 Sur 0 -- -- 77
2020-04-29 10:00:00 8.9 13 Sudoeste 30 Sudoeste 0 -- -- 86
2020-04-29 09:00:00 6.9 17 Sur 30 Sur 0 -- -- 90
2020-04-29 08:00:00 5.7 16 Sudoeste 27 Sudoeste 0 -- -- 94
2020-04-29 07:00:00 3.5 7 Sudoeste 15 Sur 0 -- -- 100
2020-04-29 06:00:00 1.7 2 Sudoeste 5 Sur 0 -- -- 100
2020-04-29 05:00:00 1.6 2 Sur 5 Sur 0 -- -- 100
2020-04-29 04:00:00 1.8 0 Calma 6 Sudoeste 0 -- -- 99
2020-04-29 03:00:00 2.3 0 Calma 3 Sudoeste 0 -- -- 99
2020-04-29 02:00:00 2.8 0 Calma 5 Sudoeste 0 -- -- 98
2020-04-29 01:00:00 3.8 2 Sur 5 Sudoeste 0 -- -- 96
2020-04-29 00:00:00 5.6 3 Sur 5 Sur 0 -- -- 94
2020-04-28 23:00:00 7.5 4 Sur 8 Oeste 0 -- -- 93
2020-04-28 22:00:00 8.6 0 Calma 6 Sur 0 -- -- 89
2020-04-28 21:00:00 9.7 2 Noroeste 9 Oeste 0.2 -- -- 87
2020-04-28 20:00:00 9 8 Noroeste 25 Oeste 0 -- -- 89
2020-04-28 19:00:00 12.3 7 Noroeste 19 Norte 0 -- -- 59
2020-04-28 18:00:00 12.7 12 Noroeste 26 Noroeste 0 -- -- 61
2020-04-28 17:00:00 12.8 8 Oeste 26 Noroeste 0 -- -- 61
2020-04-28 16:00:00 11.1 15 Noroeste 32 Noroeste 0 -- -- 61
2020-04-28 15:00:00 10.2 10 Oeste 23 Oeste 0 -- -- 78
2020-04-28 14:00:00 10.9 6 Oeste 18 Noroeste 0 -- -- 67
2020-04-28 13:00:00 9.7 11 Oeste 20 Oeste 0 -- -- 69
2020-04-28 12:00:00 9.5 12 Oeste 21 Oeste 0 -- -- 73
2020-04-28 11:00:00 8.7 5 Oeste 13 Oeste 0 -- -- 81
2020-04-28 10:00:00 7.6 5 Noroeste 10 Norte 0 -- -- 90
2020-04-28 09:00:00 4 3 Sudeste 4 Sudeste 0 -- -- 100
2020-04-28 08:00:00 1.8 0 Calma 2 Sur 0 -- -- 100
2020-04-28 07:00:00 1.5 0 Calma 4 Sur 0 -- -- 100
2020-04-28 06:00:00 1.8 3 Sudoeste 4 Sur 0 -- -- 100
2020-04-28 05:00:00 3.1 0 Calma 3 Sur 0 -- -- 100
2020-04-28 04:00:00 2.8 0 Calma 4 Sur 0 -- -- 100
2020-04-28 03:00:00 2.1 2 Sur 4 Sur 0 -- -- 100
2020-04-28 02:00:00 3.1 2 Sur 4 Sur 0 -- -- 99
2020-04-28 01:00:00 4.5 2 Sudoeste 4 Sur 0 -- -- 97
2020-04-28 00:00:00 5.6 2 Sur 4 Sur 0 -- -- 98
2020-04-27 23:00:00 7.3 0 Calma 10 Noroeste 0 -- -- 94
2020-04-27 22:00:00 8.2 2 Norte 5 Norte 0 -- -- 96
2020-04-27 21:00:00 8.9 7 Noroeste 19 Noroeste 0 -- -- 87
2020-04-27 20:00:00 10.1 0 Calma 4 Oeste 0 -- -- 88
2020-04-27 19:00:00 9.2 2 Noroeste 15 Noroeste 0 -- -- 88
2020-04-27 18:00:00 8.8 0 Calma 6 Noroeste 4.8 -- -- 95
2020-04-27 17:00:00 9.2 4 Noroeste 13 Noroeste 5 -- -- 89
2020-04-27 16:00:00 12.4 6 Oeste 21 Sudoeste 0 -- -- 74
2020-04-27 15:00:00 9.2 3 Sur 12 Norte 2.6 -- -- 92
2020-04-27 14:00:00 7.6 0 Calma 6 Sur 7.2 -- -- 97
2020-04-27 13:00:00 8.2 3 Sur 9 Norte 5.2 -- -- 94
2020-04-27 12:00:00 8.7 3 Norte 15 Norte 0 -- -- 89
2020-04-27 11:00:00 9.6 7 Oeste 14 Oeste 0 -- -- 87
2020-04-27 10:00:00 8.1 0 Calma 5 Este 0 -- -- 95
2020-04-27 09:00:00 7.3 0 Calma 3 Norte 0 -- -- 99
2020-04-27 08:00:00 6.4 0 Calma 4 Noroeste 0 -- -- 100
2020-04-27 07:00:00 5.9 0 Calma 3 Sur 0 -- -- 99
2020-04-27 06:00:00 5.5 0 Calma 2 Sur 0 -- -- 98
2020-04-27 05:00:00 6.6 0 Calma 2 Sur 0 -- -- 97
2020-04-27 04:00:00 7.1 0 Calma 3 Sudoeste 0 -- -- 97
2020-04-27 03:00:00 7.4 0 Calma 3 Sudeste 0 -- -- 97
2020-04-27 02:00:00 8 0 Calma 2 Nordeste 0 -- -- 95
2020-04-27 01:00:00 8.4 0 Calma 3 Norte 0 -- -- 95
2020-04-27 00:00:00 8.7 2 Norte 8 Noroeste 0 -- -- 93